Time;durP1;ratioP1;P1;durP2;ratioP2;P2;SDS_P1;SDS_P2;PMS_P1;PMS_P2;Temp;Humidity;BMP_temperature;BMP_pressure;BME280_temperature;BME280_humidity;BME280_pressure;Samples;Min_cycle;Max_cycle;Signal;HPM_P1;HPM_P2
2021/05/11 00:02:22;;;;;;;10.80;7.50;;;19.70;57.40;;;;;;5041289;28;20032;-63
2021/05/11 00:04:47;;;;;;;9.40;7.45;;;19.60;57.40;;;;;;5047838;28;20056;-63
2021/05/11 00:07:15;;;;;;;9.48;7.13;;;19.60;57.50;;;;;;5041513;28;20486;-63
2021/05/11 00:09:43;;;;;;;9.52;7.18;;;19.60;57.60;;;;;;5061312;28;20559;-63
2021/05/11 00:12:09;;;;;;;9.40;6.40;;;19.70;57.60;;;;;;5061784;28;20407;-63
2021/05/11 00:14:37;;;;;;;9.32;7.25;;;19.60;57.60;;;;;;5067812;28;20047;-64
2021/05/11 00:17:05;;;;;;;7.72;6.57;;;19.60;57.70;;;;;;5042084;28;20502;-63
2021/05/11 00:19:36;;;;;;;7.60;6.30;;;19.60;57.70;;;;;;5065331;28;20163;-64
2021/05/11 00:22:04;;;;;;;17.10;6.75;;;19.60;57.80;;;;;;5063273;28;20567;-63
2021/05/11 00:24:31;;;;;;;10.18;7.22;;;19.60;57.90;;;;;;5065871;28;20101;-63
2021/05/11 00:26:57;;;;;;;8.63;6.60;;;19.60;58.00;;;;;;5065740;28;20068;-64
2021/05/11 00:29:22;;;;;;;11.27;6.90;;;19.60;58.10;;;;;;5066116;28;20691;-63
2021/05/11 00:31:51;;;;;;;9.18;6.78;;;19.50;58.20;;;;;;5066364;28;20115;-63
2021/05/11 00:34:21;;;;;;;9.73;7.35;;;19.50;58.30;;;;;;5070873;28;21605;-64
2021/05/11 00:36:51;;;;;;;7.82;6.97;;;19.50;58.50;;;;;;5065205;28;20733;-63
2021/05/11 00:39:17;;;;;;;12.32;7.55;;;19.50;58.60;;;;;;5047868;28;20067;-63
2021/05/11 00:41:42;;;;;;;10.05;7.53;;;19.50;58.70;;;;;;5065866;28;20134;-63
2021/05/11 00:44:22;;;;;;;8.25;7.43;;;19.50;58.80;;;;;;5049229;28;20123;-63
2021/05/11 00:46:57;;;;;;;16.10;8.52;;;19.40;58.80;;;;;;5064452;28;20421;-64
2021/05/11 00:49:23;;;;;;;12.05;7.60;;;19.40;58.90;;;;;;5071593;28;20032;-64
2021/05/11 00:51:54;;;;;;;10.98;8.30;;;19.40;59.00;;;;;;5065481;28;20036;-64
2021/05/11 00:54:21;;;;;;;12.43;8.13;;;19.40;59.10;;;;;;5064286;28;20073;-64
2021/05/11 00:56:47;;;;;;;11.32;7.65;;;19.30;59.30;;;;;;5066542;28;20552;-64
2021/05/11 00:59:24;;;;;;;10.10;8.25;;;19.30;59.40;;;;;;5060224;28;20071;-64
2021/05/11 01:01:52;;;;;;;12.85;9.10;;;19.30;59.60;;;;;;5053558;28;20050;-64
2021/05/11 01:04:18;;;;;;;13.88;9.40;;;19.30;59.60;;;;;;5038254;28;20036;-64
2021/05/11 01:06:48;;;;;;;21.10;9.32;;;19.30;59.70;;;;;;5047250;28;20029;-64
2021/05/11 01:09:14;;;;;;;14.43;9.10;;;19.30;59.70;;;;;;5037651;28;20480;-64
2021/05/11 01:11:40;;;;;;;16.40;9.95;;;19.30;59.80;;;;;;5038754;28;20040;-64
2021/05/11 01:14:06;;;;;;;14.07;9.50;;;19.40;59.90;;;;;;5029549;28;20040;-64
2021/05/11 01:16:33;;;;;;;14.25;9.50;;;19.30;59.90;;;;;;5037455;28;20040;-63
2021/05/11 01:19:14;;;;;;;12.93;9.27;;;19.30;59.90;;;;;;5039047;28;21521;-64
2021/05/11 01:21:57;;;;;;;15.25;10.32;;;19.30;60.10;;;;;;5041076;28;20540;-64
2021/05/11 01:24:32;;;;;;;17.30;9.77;;;19.30;60.20;;;;;;5042519;28;20059;-64
2021/05/11 01:27:07;;;;;;;15.88;9.57;;;19.20;60.20;;;;;;5042093;28;20054;-64
2021/05/11 01:48:38;;;;;;;12.40;9.80;;;19.10;60.90;;;;;;5049854;28;20391;-64
2021/05/11 01:51:16;;;;;;;15.43;9.65;;;19.10;61.00;;;;;;5043443;28;20044;-64
2021/05/11 02:23:11;;;;;;;11.32;7.50;;;18.80;62.00;;;;;;5057228;28;20046;-64
2021/05/11 02:25:37;;;;;;;10.38;7.68;;;18.70;62.00;;;;;;5053588;28;20040;-64
2021/05/11 02:28:07;;;;;;;10.63;7.22;;;18.70;62.00;;;;;;5057820;28;20051;-65
2021/05/11 02:30:35;;;;;;;10.23;7.15;;;18.70;62.00;;;;;;5058277;28;21030;-64
2021/05/11 02:33:03;;;;;;;13.57;7.82;;;18.70;62.10;;;;;;5055405;28;20043;-65
2021/05/11 02:35:31;;;;;;;12.80;8.02;;;18.60;62.10;;;;;;5066262;28;20524;-65
2021/05/11 02:37:56;;;;;;;15.27;8.30;;;18.60;62.20;;;;;;5058953;28;20062;-64
2021/05/11 02:40:26;;;;;;;12.77;7.68;;;18.60;62.30;;;;;;5063985;28;20533;-64
2021/05/11 02:43:00;;;;;;;11.25;7.43;;;18.60;62.40;;;;;;5064818;28;20036;-64
2021/05/11 02:45:26;;;;;;;16.42;7.78;;;18.60;62.40;;;;;;5057360;28;20045;-64
2021/05/11 02:47:51;;;;;;;12.48;7.63;;;18.50;62.40;;;;;;5059547;28;20500;-64
2021/05/11 02:50:23;;;;;;;13.15;7.72;;;18.60;62.60;;;;;;5067844;28;20518;-64
2021/05/11 02:52:51;;;;;;;16.23;8.38;;;18.60;62.60;;;;;;5055272;28;20036;-65
2021/05/11 02:55:18;;;;;;;13.95;8.25;;;18.60;62.60;;;;;;5061774;28;20036;-65
2021/05/11 02:57:46;;;;;;;14.90;8.45;;;18.60;62.60;;;;;;5042575;28;20044;-64
2021/05/11 03:00:15;;;;;;;15.13;8.48;;;18.60;62.60;;;;;;5062858;28;20075;-64
2021/05/11 03:02:41;;;;;;;13.77;8.20;;;18.60;62.60;;;;;;5059553;28;20070;-64
2021/05/11 03:05:08;;;;;;;12.68;7.80;;;18.60;62.60;;;;;;5059998;28;20127;-65
2021/05/11 03:07:38;;;;;;;11.68;7.05;;;18.60;62.60;;;;;;5058392;28;20047;-64
2021/05/11 03:10:08;;;;;;;11.98;6.70;;;18.60;62.60;;;;;;5054040;28;20036;-65
2021/05/11 03:12:38;;;;;;;10.45;7.15;;;18.50;62.60;;;;;;5046026;28;20885;-64
2021/05/11 03:15:07;;;;;;;11.73;7.40;;;18.50;62.70;;;;;;5040527;28;20041;-64
2021/05/11 03:17:37;;;;;;;9.07;7.03;;;18.50;62.70;;;;;;5040722;28;20054;-64
2021/05/11 03:20:06;;;;;;;9.98;7.05;;;18.50;62.80;;;;;;5026109;28;20059;-64
2021/05/11 03:22:34;;;;;;;12.95;7.53;;;18.50;62.80;;;;;;5035433;28;20043;-64
2021/05/11 03:25:02;;;;;;;8.20;6.10;;;18.50;63.00;;;;;;5040951;28;20058;-64
2021/05/11 03:27:28;;;;;;;11.27;6.50;;;18.40;62.80;;;;;;5045488;28;20064;-64
2021/05/11 03:29:56;;;;;;;11.85;5.95;;;18.40;62.80;;;;;;5034538;28;21141;-65
2021/05/11 03:32:23;;;;;;;13.35;6.25;;;18.40;62.80;;;;;;5035346;28;20044;-65
2021/05/11 03:34:49;;;;;;;9.75;6.22;;;18.40;63.00;;;;;;5031715;28;20043;-65
2021/05/11 03:37:15;;;;;;;9.63;6.80;;;18.40;63.00;;;;;;5044867;28;20300;-65
2021/05/11 03:39:44;;;;;;;10.93;6.45;;;18.40;63.00;;;;;;5035399;28;20036;-64
2021/05/11 03:44:43;;;;;;;9.63;6.15;;;18.40;63.10;;;;;;5058896;28;20040;-64
2021/05/11 03:47:09;;;;;;;9.25;6.13;;;18.40;63.00;;;;;;5058023;28;20044;-65
2021/05/11 03:49:36;;;;;;;11.65;6.97;;;18.30;63.00;;;;;;5055215;28;20094;-64
2021/05/11 03:52:02;;;;;;;9.80;5.82;;;18.30;63.00;;;;;;5058393;28;20131;-65
2021/05/11 03:54:32;;;;;;;14.52;6.88;;;18.30;63.00;;;;;;5062480;28;24149;-65
2021/05/11 03:57:04;;;;;;;11.20;7.15;;;18.30;63.10;;;;;;5063114;28;20035;-65
2021/05/11 03:59:34;;;;;;;9.52;6.97;;;18.30;63.10;;;;;;5060706;28;20122;-65
2021/05/11 04:02:02;;;;;;;10.90;6.82;;;18.30;63.10;;;;;;5045464;28;20064;-65
2021/05/11 04:04:30;;;;;;;10.25;6.93;;;18.30;63.10;;;;;;5034626;28;20056;-65
2021/05/11 04:06:58;;;;;;;12.93;6.93;;;18.30;63.10;;;;;;5037437;28;20048;-65
2021/05/11 04:10:14;;;;;;;13.45;7.00;;;18.30;63.10;;;;;;5047630;28;20041;-65
2021/05/11 04:17:49;;;;;;;12.55;6.80;;;18.30;63.00;;;;;;5050996;28;20047;-65
2021/05/11 04:20:14;;;;;;;14.88;7.32;;;18.30;63.00;;;;;;5047587;28;20052;-65
2021/05/11 04:22:42;;;;;;;13.18;7.05;;;18.30;63.00;;;;;;5060663;28;20036;-64
2021/05/11 04:25:11;;;;;;;11.75;7.15;;;18.30;63.80;;;;;;5059963;28;20178;-65
2021/05/11 04:27:38;;;;;;;13.25;6.85;;;18.40;63.10;;;;;;5062371;28;20039;-65
2021/05/11 04:30:08;;;;;;;9.65;6.70;;;18.40;63.10;;;;;;5069035;28;20036;-65
2021/05/11 04:32:33;;;;;;;10.55;6.20;;;18.40;63.00;;;;;;5050218;28;20043;-65
2021/05/11 04:34:59;;;;;;;10.13;5.75;;;18.40;63.00;;;;;;5057512;28;20040;-65
2021/05/11 04:37:24;;;;;;;12.35;6.30;;;18.30;63.00;;;;;;5045895;28;20047;-65
2021/05/11 04:39:57;;;;;;;13.80;6.03;;;18.30;63.00;;;;;;5072669;28;20094;-66
2021/05/11 04:42:22;;;;;;;12.48;6.30;;;18.30;63.00;;;;;;5061689;28;20067;-65
2021/05/11 04:44:52;;;;;;;16.50;6.45;;;18.30;62.90;;;;;;5062474;28;20024;-65
2021/05/11 04:47:21;;;;;;;7.20;5.97;;;18.40;63.00;;;;;;5069935;28;20055;-65
2021/05/11 04:49:49;;;;;;;10.45;6.22;;;18.40;62.90;;;;;;5063284;28;20058;-65
2021/05/11 04:52:15;;;;;;;11.75;5.97;;;18.40;62.90;;;;;;5052959;28;20047;-65
2021/05/11 04:54:45;;;;;;;11.68;6.20;;;18.30;62.80;;;;;;5067458;28;20028;-65
2021/05/11 04:57:10;;;;;;;11.63;6.57;;;18.30;62.90;;;;;;5067815;28;20048;-65
2021/05/11 04:59:36;;;;;;;14.48;6.28;;;18.40;63.00;;;;;;5064454;28;20040;-65
2021/05/11 05:02:05;;;;;;;16.33;6.57;;;18.30;62.80;;;;;;5062896;28;20043;-65
2021/05/11 05:04:33;;;;;;;13.15;6.60;;;18.30;62.80;;;;;;5072657;28;20040;-65
2021/05/11 05:07:00;;;;;;;10.75;6.63;;;18.40;62.80;;;;;;5052158;28;20469;-65
2021/05/11 05:09:26;;;;;;;13.77;6.95;;;18.40;62.90;;;;;;5077919;28;20040;-65
2021/05/11 05:11:54;;;;;;;10.90;6.05;;;18.40;62.90;;;;;;5076282;28;20032;-65
2021/05/11 05:14:22;;;;;;;14.20;7.10;;;18.40;62.90;;;;;;5052207;28;20081;-65
2021/05/11 05:16:49;;;;;;;11.70;6.38;;;18.40;63.00;;;;;;5069387;28;20072;-65
2021/05/11 05:19:17;;;;;;;11.40;6.80;;;18.40;63.00;;;;;;5070922;28;20509;-65
2021/05/11 05:21:43;;;;;;;13.48;7.07;;;18.40;62.90;;;;;;5054173;28;20048;-65
2021/05/11 05:24:15;;;;;;;12.27;6.90;;;18.40;62.90;;;;;;5074388;28;20020;-65
2021/05/11 05:26:40;;;;;;;15.05;6.60;;;18.40;62.90;;;;;;5066781;28;20032;-64
2021/05/11 05:29:08;;;;;;;12.48;6.78;;;18.40;62.80;;;;;;5065591;28;20042;-65
2021/05/11 05:31:34;;;;;;;15.95;6.93;;;18.40;62.80;;;;;;5068322;28;20371;-65
2021/05/11 05:33:59;;;;;;;12.15;6.80;;;18.50;63.00;;;;;;5072107;28;24047;-65
2021/05/11 05:36:25;;;;;;;13.50;6.35;;;18.50;63.00;;;;;;5068436;28;20123;-65
2021/05/11 05:38:51;;;;;;;12.57;6.97;;;18.50;63.00;;;;;;5078392;28;20408;-66
2021/05/11 05:41:21;;;;;;;13.40;6.82;;;18.50;63.00;;;;;;5051827;28;20097;-65
2021/05/11 05:43:48;;;;;;;15.88;7.10;;;18.50;63.00;;;;;;5064335;28;20047;-65
2021/05/11 05:46:18;;;;;;;15.63;7.32;;;18.50;62.80;;;;;;5058774;28;20585;-65
2021/05/11 05:48:45;;;;;;;16.90;8.07;;;18.50;62.80;;;;;;5050196;28;20116;-65
2021/05/11 05:51:12;;;;;;;10.85;7.35;;;18.50;62.80;;;;;;5059305;28;20566;-66
2021/05/11 05:53:41;;;;;;;18.08;7.72;;;18.40;62.80;;;;;;5068869;28;20051;-64
2021/05/11 05:56:08;;;;;;;12.25;7.03;;;18.40;62.80;;;;;;5065238;28;20047;-65
2021/05/11 05:58:35;;;;;;;15.63;7.00;;;18.40;63.00;;;;;;5066794;28;20137;-66
2021/05/11 06:01:04;;;;;;;12.05;7.22;;;18.50;63.10;;;;;;5059448;28;20547;-65
2021/05/11 06:03:51;;;;;;;17.63;8.10;;;18.50;63.10;;;;;;5062894;28;20071;-65
2021/05/11 06:06:19;;;;;;;18.90;7.97;;;18.50;63.10;;;;;;5030309;28;20055;-65
2021/05/11 06:08:47;;;;;;;16.98;7.82;;;18.60;63.10;;;;;;5033900;28;20174;-65
2021/05/11 06:11:30;;;;;;;19.80;8.13;;;18.60;63.10;;;;;;5035524;28;21707;-65
2021/05/11 06:19:24;;;;;;;22.77;7.13;;;18.80;62.80;;;;;;5041789;28;20109;-66
2021/05/11 06:21:50;;;;;;;16.63;7.85;;;18.80;62.80;;;;;;5036388;28;20033;-65
2021/05/11 06:24:16;;;;;;;12.13;6.00;;;18.80;62.80;;;;;;5035281;28;20052;-65
2021/05/11 06:26:45;;;;;;;14.07;7.28;;;18.90;62.60;;;;;;5040335;28;20106;-65
2021/05/11 06:29:12;;;;;;;12.43;6.75;;;18.90;62.50;;;;;;5039242;28;20033;-66
2021/05/11 06:31:37;;;;;;;9.55;5.38;;;18.90;62.40;;;;;;5033015;28;20063;-63
2021/05/11 06:34:04;;;;;;;11.70;5.35;;;18.90;62.40;;;;;;5042709;28;21859;-65
2021/05/11 06:36:30;;;;;;;12.65;6.18;;;18.90;62.50;;;;;;5041283;28;20866;-66
2021/05/11 06:38:55;;;;;;;13.40;5.95;;;18.90;62.50;;;;;;5032126;28;20033;-66
2021/05/11 06:41:23;;;;;;;15.75;6.25;;;19.00;62.50;;;;;;5035177;28;20567;-66
2021/05/11 06:43:55;;;;;;;14.00;5.93;;;19.10;62.40;;;;;;5040430;28;20043;-65
2021/05/11 06:54:18;;;;;;;15.68;6.20;;;19.20;61.80;;;;;;5036150;28;20028;-66
2021/05/11 06:56:45;;;;;;;13.20;5.97;;;19.20;61.60;;;;;;5040313;28;20881;-66
2021/05/11 06:59:14;;;;;;;12.80;6.00;;;19.20;61.50;;;;;;5033079;28;20280;-66
2021/05/11 07:01:44;;;;;;;12.73;6.80;;;19.10;61.40;;;;;;5030123;28;20036;-65
2021/05/11 07:04:09;;;;;;;11.98;7.60;;;19.10;61.40;;;;;;5034017;28;20032;-66
2021/05/11 07:06:39;;;;;;;17.55;7.03;;;19.10;61.60;;;;;;5042220;28;20052;-66
2021/05/11 07:09:09;;;;;;;12.18;6.38;;;19.10;61.70;;;;;;5041359;28;20024;-66
2021/05/11 07:14:04;;;;;;;16.75;9.25;;;19.10;61.90;;;;;;5037583;28;24454;-66
2021/05/11 07:16:30;;;;;;;15.68;9.18;;;19.10;62.10;;;;;;5041560;28;20043;-66
2021/05/11 07:18:55;;;;;;;12.57;8.80;;;19.20;62.20;;;;;;5042339;28;20037;-66
2021/05/11 07:21:21;;;;;;;13.63;9.07;;;19.20;62.00;;;;;;5022558;28;20551;-66
2021/05/11 07:23:47;;;;;;;15.40;9.18;;;19.20;61.80;;;;;;5033613;28;20660;-66
2021/05/11 07:31:27;;;;;;;16.10;10.13;;;19.30;61.90;;;;;;5046493;28;20036;-66
2021/05/11 07:33:56;;;;;;;22.40;11.15;;;19.30;61.80;;;;;;5037496;28;20108;-67
2021/05/11 07:36:24;;;;;;;18.20;12.52;;;19.30;61.60;;;;;;5033993;28;21345;-65
2021/05/11 07:38:54;;;;;;;27.98;16.42;;;19.30;61.60;;;;;;5037774;28;20037;-66
2021/05/11 07:41:22;;;;;;;21.70;15.45;;;19.30;61.60;;;;;;5030249;28;20106;-66
2021/05/11 07:43:54;;;;;;;22.23;15.30;;;19.30;61.50;;;;;;5045290;28;20041;-66
2021/05/11 08:02:46;;;;;;;20.58;11.25;;;19.00;62.10;;;;;;5057846;28;20429;-66
2021/05/11 08:15:42;;;;;;;12.05;8.88;;;19.10;62.50;;;;;;5049746;28;20113;-66
2021/05/11 08:18:19;;;;;;;10.80;8.68;;;19.20;62.40;;;;;;5046492;28;20039;-66
2021/05/11 08:28:47;;;;;;;11.23;7.00;;;19.20;62.40;;;;;;5042395;28;20328;-66
2021/05/11 08:31:13;;;;;;;8.93;7.13;;;19.30;62.80;;;;;;5042970;28;20043;-66
2021/05/11 08:33:38;;;;;;;10.02;6.65;;;19.30;62.80;;;;;;5036848;28;20063;-66
2021/05/11 08:36:04;;;;;;;8.15;6.75;;;19.40;62.80;;;;;;5038820;28;20036;-66
2021/05/11 08:38:33;;;;;;;7.40;6.45;;;19.50;62.50;;;;;;5029608;28;20361;-66
2021/05/11 08:40:58;;;;;;;7.00;6.30;;;19.60;63.00;;;;;;5038543;28;20082;-67
2021/05/11 08:43:35;;;;;;;7.28;5.97;;;19.60;62.30;;;;;;5023445;28;22726;-66
2021/05/11 08:46:03;;;;;;;5.40;4.90;;;19.70;62.40;;;;;;5043522;28;20311;-66
2021/05/11 08:48:30;;;;;;;7.03;5.80;;;19.70;62.00;;;;;;5047689;28;20033;-66
2021/05/11 08:51:03;;;;;;;6.13;5.53;;;19.80;61.90;;;;;;5035565;28;20044;-66
2021/05/11 09:04:40;;;;;;;5.78;4.10;;;19.80;60.70;;;;;;5038705;28;20055;-66
2021/05/11 09:16:45;;;;;;;7.60;3.67;;;19.70;61.50;;;;;;5037029;28;20064;-66
2021/05/11 09:32:43;;;;;;;3.80;3.25;;;19.80;60.40;;;;;;5058881;28;20269;-66
2021/05/11 09:55:10;;;;;;;7.65;3.45;;;19.70;60.30;;;;;;5044390;28;20657;-66
2021/05/11 09:58:02;;;;;;;4.85;3.65;;;19.70;60.70;;;;;;5065409;28;20032;-66
2021/05/11 10:01:17;;;;;;;5.40;3.65;;;19.80;61.00;;;;;;5068098;28;20501;-66
2021/05/11 10:12:53;;;;;;;4.78;2.50;;;20.10;60.00;;;;;;5061341;28;20048;-66
2021/05/11 10:27:05;;;;;;;2.92;2.58;;;20.10;59.80;;;;;;5033705;28;20097;-66
2021/05/11 10:38:48;;;;;;;3.63;2.45;;;19.60;59.70;;;;;;5053346;28;20987;-66
2021/05/11 10:48:24;;;;;;;6.07;2.97;;;19.50;60.00;;;;;;5048607;28;20496;-66
2021/05/11 10:51:01;;;;;;;4.97;2.83;;;19.60;59.90;;;;;;5065087;28;20105;-66
2021/05/11 10:53:35;;;;;;;5.82;2.72;;;19.50;59.80;;;;;;5060056;28;20075;-65
2021/05/11 10:56:37;;;;;;;8.77;3.05;;;19.60;60.00;;;;;;5059998;28;20630;-66
2021/05/11 10:59:23;;;;;;;5.78;3.20;;;19.60;60.00;;;;;;5052530;28;20670;-65
2021/05/11 11:02:23;;;;;;;7.43;3.28;;;19.60;60.20;;;;;;5055674;28;20059;-66
2021/05/11 11:04:49;;;;;;;4.22;2.80;;;19.70;60.50;;;;;;5055981;28;20560;-66
2021/05/11 11:07:20;;;;;;;6.65;2.85;;;19.80;60.30;;;;;;5054420;28;20517;-66
2021/05/11 11:09:58;;;;;;;4.40;2.85;;;19.90;59.80;;;;;;5054563;28;20044;-66
2021/05/11 11:12:34;;;;;;;7.15;2.75;;;19.90;59.40;;;;;;5061475;28;20032;-66
2021/05/11 11:15:16;;;;;;;3.45;2.53;;;20.00;59.30;;;;;;5071958;28;20048;-66
2021/05/11 11:17:49;;;;;;;4.38;2.53;;;20.00;59.20;;;;;;5052024;28;20582;-66
2021/05/11 11:20:19;;;;;;;3.58;2.40;;;20.00;58.90;;;;;;5060259;28;20053;-66
2021/05/11 11:25:59;;;;;;;7.95;2.80;;;20.00;58.70;;;;;;5076751;28;20042;-66
2021/05/11 11:28:32;;;;;;;4.25;2.90;;;19.90;58.60;;;;;;5078464;28;20040;-65
2021/05/11 11:31:00;;;;;;;4.63;2.88;;;19.90;58.60;;;;;;5065980;28;20057;-66
2021/05/11 11:33:26;;;;;;;4.28;3.00;;;19.90;58.80;;;;;;5070899;28;20046;-65
2021/05/11 11:35:56;;;;;;;7.40;3.45;;;19.80;58.80;;;;;;5070027;28;20032;-65
2021/05/11 11:38:26;;;;;;;4.60;2.83;;;19.80;58.80;;;;;;5059314;28;21111;-66
2021/05/11 11:41:02;;;;;;;5.85;3.15;;;19.80;58.70;;;;;;5065134;28;20497;-65
2021/05/11 11:43:29;;;;;;;9.10;3.80;;;19.80;58.70;;;;;;5046323;28;20217;-66
2021/05/11 11:45:57;;;;;;;5.68;3.40;;;19.80;58.70;;;;;;5066749;28;20149;-65
2021/05/11 11:48:24;;;;;;;6.65;3.45;;;19.80;58.70;;;;;;5062667;28;20036;-66
2021/05/11 11:51:00;;;;;;;7.32;4.00;;;19.80;58.70;;;;;;5066828;28;20127;-65
2021/05/11 11:53:31;;;;;;;5.60;3.85;;;19.80;58.70;;;;;;5067097;28;20089;-65
2021/05/11 11:58:34;;;;;;;9.85;4.85;;;19.70;58.70;;;;;;5066954;28;20036;-66
2021/05/11 12:01:17;;;;;;;5.88;4.30;;;19.70;58.60;;;;;;5051131;28;20093;-65
2021/05/11 12:03:47;;;;;;;5.53;4.47;;;19.60;58.50;;;;;;5056065;28;20040;-66
2021/05/11 12:06:27;;;;;;;6.78;4.97;;;19.50;58.60;;;;;;5062026;28;20074;-66
2021/05/11 12:08:55;;;;;;;7.15;4.88;;;19.50;58.80;;;;;;5036367;28;20055;-65
2021/05/11 12:11:23;;;;;;;5.80;4.85;;;19.50;58.90;;;;;;5069174;28;20086;-65
2021/05/11 12:13:50;;;;;;;11.48;5.07;;;19.50;58.70;;;;;;5062013;28;21452;-65
2021/05/11 12:16:23;;;;;;;7.53;5.00;;;19.50;58.80;;;;;;5050821;28;20525;-66
2021/05/11 12:19:07;;;;;;;8.50;5.57;;;19.50;58.80;;;;;;5062612;28;20051;-66
2021/05/11 12:22:01;;;;;;;8.52;5.00;;;19.50;59.10;;;;;;5043044;28;20470;-65
2021/05/11 12:24:35;;;;;;;8.38;5.65;;;19.50;59.20;;;;;;5041942;28;20044;-66
2021/05/11 12:27:19;;;;;;;7.05;5.50;;;19.60;59.50;;;;;;5047874;28;20226;-66
2021/05/11 12:30:02;;;;;;;6.80;4.93;;;19.80;59.50;;;;;;5049276;28;20622;-66
2021/05/11 12:32:29;;;;;;;10.70;5.13;;;20.00;58.80;;;;;;5062957;28;20040;-66
2021/05/11 12:35:08;;;;;;;8.55;4.93;;;20.00;58.50;;;;;;5039826;28;20442;-66
2021/05/11 12:37:58;;;;;;;8.05;4.63;;;20.10;58.20;;;;;;5043612;28;20047;-66
2021/05/11 12:40:41;;;;;;;9.95;4.85;;;20.20;58.30;;;;;;5021538;28;20092;-66
2021/05/11 12:43:06;;;;;;;9.20;5.45;;;20.30;58.20;;;;;;5049379;28;20093;-66
2021/05/11 12:45:39;;;;;;;6.65;5.50;;;20.40;58.00;;;;;;5050088;28;20036;-65
2021/05/11 12:48:07;;;;;;;5.75;5.13;;;20.40;57.70;;;;;;5052848;28;20036;-65
2021/05/11 12:50:39;;;;;;;8.48;5.78;;;20.50;57.60;;;;;;5032028;28;20457;-66
2021/05/11 12:53:37;;;;;;;9.90;5.40;;;20.60;57.70;;;;;;5029345;28;20036;-66
2021/05/11 13:01:23;;;;;;;7.40;5.57;;;20.80;56.50;;;;;;5061155;28;20478;-66
2021/05/11 13:04:25;;;;;;;7.57;5.78;;;20.80;56.20;;;;;;5064161;28;20104;-66
2021/05/11 13:15:36;;;;;;;10.35;5.90;;;20.10;56.00;;;;;;5069481;28;20147;-65
2021/05/11 13:26:28;;;;;;;8.38;5.13;;;20.00;57.30;;;;;;5068730;28;20160;-65
2021/05/11 13:29:01;;;;;;;10.27;5.13;;;20.10;57.40;;;;;;5050538;28;20273;-65
2021/05/11 13:31:32;;;;;;;8.40;5.75;;;20.10;57.20;;;;;;5073780;28;20585;-65
2021/05/11 13:34:08;;;;;;;8.80;5.70;;;20.20;57.30;;;;;;5067620;28;20040;-65
2021/05/11 13:36:37;;;;;;;9.77;6.28;;;20.20;57.20;;;;;;5060638;28;20097;-65
2021/05/11 13:39:04;;;;;;;7.57;5.45;;;20.30;57.20;;;;;;5052331;28;20062;-66
2021/05/11 13:41:30;;;;;;;8.15;4.85;;;20.30;57.00;;;;;;5068510;28;20044;-65
2021/05/11 13:43:58;;;;;;;6.57;4.97;;;20.30;57.00;;;;;;5074925;28;20044;-65
2021/05/11 13:46:24;;;;;;;10.85;5.55;;;20.30;57.00;;;;;;5065309;28;20032;-65
2021/05/11 13:48:49;;;;;;;11.00;5.82;;;20.30;57.10;;;;;;5069456;28;20039;-66
2021/05/11 13:51:23;;;;;;;7.18;5.20;;;20.20;57.10;;;;;;5071442;28;20093;-65
2021/05/11 13:53:55;;;;;;;9.15;5.05;;;20.20;57.10;;;;;;5064294;28;20050;-66
2021/05/11 14:02:06;;;;;;;8.05;4.47;;;20.20;57.00;;;;;;5060031;28;20039;-65
2021/05/11 14:04:18;;;;;;;8.57;3.95;;;20.20;56.80;;;;;;5055107;28;20466;-66
2021/05/11 14:06:44;;;;;;;8.55;4.40;;;20.20;57.00;;;;;;5051425;28;20356;-66
2021/05/11 14:09:12;;;;;;;6.18;3.83;;;20.20;57.20;;;;;;5055122;28;20083;-65
2021/05/11 14:11:41;;;;;;;11.07;4.30;;;20.20;57.40;;;;;;5060614;28;20035;-66
2021/05/11 14:14:09;;;;;;;6.93;3.67;;;20.30;57.40;;;;;;5067583;28;20032;-65
2021/05/11 14:16:37;;;;;;;7.93;3.63;;;20.30;56.80;;;;;;5068947;28;20324;-66
2021/05/11 14:19:05;;;;;;;5.55;3.72;;;20.30;56.90;;;;;;5063112;28;20078;-66
2021/05/11 14:21:31;;;;;;;8.57;3.85;;;20.30;57.00;;;;;;5060780;28;20044;-66
2021/05/11 14:24:01;;;;;;;4.95;3.50;;;20.40;57.00;;;;;;5056283;28;20038;-65
2021/05/11 14:26:27;;;;;;;8.40;3.72;;;20.40;57.00;;;;;;5065578;28;20078;-66
2021/05/11 14:28:56;;;;;;;5.63;3.47;;;20.40;56.80;;;;;;5065446;28;20128;-65
2021/05/11 14:31:25;;;;;;;9.35;3.60;;;20.40;56.80;;;;;;5064118;28;20039;-65
2021/05/11 14:33:50;;;;;;;5.05;2.90;;;20.50;56.70;;;;;;5068636;28;20044;-65
2021/05/11 14:36:16;;;;;;;8.63;2.97;;;20.50;55.90;;;;;;5069603;28;20177;-65
2021/05/11 14:38:47;;;;;;;7.88;3.45;;;20.50;56.30;;;;;;5052633;28;20659;-66
2021/05/11 14:41:13;;;;;;;6.40;3.13;;;20.50;56.20;;;;;;5063975;28;20040;-65
2021/05/11 14:43:40;;;;;;;11.45;3.50;;;20.50;56.20;;;;;;5070063;28;20071;-65
2021/05/11 14:46:08;;;;;;;4.53;3.60;;;20.50;56.10;;;;;;5074111;28;20043;-65
2021/05/11 14:48:35;;;;;;;7.40;3.30;;;20.50;56.30;;;;;;5056692;28;20036;-65
2021/05/11 14:51:05;;;;;;;6.30;3.10;;;20.60;56.30;;;;;;5073488;28;20614;-65
2021/05/11 14:53:33;;;;;;;4.65;2.95;;;20.60;55.90;;;;;;5073832;28;20043;-65
2021/05/11 14:56:01;;;;;;;5.85;3.10;;;20.70;56.00;;;;;;5080223;28;20291;-65
2021/05/11 14:58:30;;;;;;;8.38;4.80;;;20.80;56.00;;;;;;5082762;28;20046;-65
2021/05/11 15:00:57;;;;;;;7.78;5.47;;;20.80;55.80;;;;;;5067138;28;20218;-65
2021/05/11 15:03:25;;;;;;;11.18;5.57;;;20.80;55.80;;;;;;5063712;28;20127;-65
2021/05/11 15:05:51;;;;;;;9.40;5.95;;;20.90;55.90;;;;;;5071945;28;20039;-65
2021/05/11 15:08:21;;;;;;;10.02;5.28;;;20.90;55.90;;;;;;5078969;28;20031;-65
2021/05/11 15:10:49;;;;;;;14.60;6.00;;;20.90;55.70;;;;;;5052046;28;20039;-65
2021/05/11 15:13:19;;;;;;;11.77;5.97;;;20.90;55.90;;;;;;5075819;28;20035;-66
2021/05/11 15:15:47;;;;;;;12.70;6.03;;;20.90;55.90;;;;;;5068221;28;20391;-65
2021/05/11 15:18:13;;;;;;;10.57;5.95;;;20.90;55.70;;;;;;5063508;28;20028;-65
2021/05/11 15:20:39;;;;;;;11.65;5.35;;;20.90;55.60;;;;;;5067435;28;20048;-66
2021/05/11 15:23:07;;;;;;;16.25;6.15;;;20.80;55.60;;;;;;5067792;28;20437;-65
2021/05/11 15:25:35;;;;;;;11.30;5.50;;;20.80;55.50;;;;;;5065832;28;20628;-65
2021/05/11 15:28:05;;;;;;;8.45;5.75;;;20.80;55.70;;;;;;5070024;28;20571;-65
2021/05/11 15:30:33;;;;;;;9.63;6.07;;;20.70;55.60;;;;;;5057453;28;20047;-65
2021/05/11 15:32:59;;;;;;;16.83;5.93;;;20.60;55.50;;;;;;5067921;28;20051;-65
2021/05/11 15:35:35;;;;;;;10.45;6.32;;;20.60;55.60;;;;;;5069581;28;20040;-65
2021/05/11 15:38:04;;;;;;;10.27;5.05;;;20.50;55.80;;;;;;5068454;28;20036;-65
2021/05/11 15:40:36;;;;;;;9.35;4.90;;;20.50;56.00;;;;;;5069200;28;20046;-65
2021/05/11 15:43:05;;;;;;;11.52;5.63;;;20.40;56.10;;;;;;5065358;28;20592;-65
2021/05/11 15:45:31;;;;;;;12.00;5.07;;;20.40;56.30;;;;;;5071731;28;20102;-65
2021/05/11 15:48:03;;;;;;;9.32;5.28;;;20.40;56.20;;;;;;5042188;28;20028;-65
2021/05/11 15:50:53;;;;;;;10.35;4.70;;;20.40;56.20;;;;;;5068640;28;20059;-65
2021/05/11 15:53:19;;;;;;;13.70;4.55;;;20.40;56.30;;;;;;5071026;28;21920;-65
2021/05/11 15:55:49;;;;;;;13.85;5.72;;;20.40;56.40;;;;;;5073424;28;20048;-65
2021/05/11 15:58:20;;;;;;;8.75;4.70;;;20.40;56.40;;;;;;5070114;28;20141;-65
2021/05/11 16:00:50;;;;;;;7.07;4.38;;;20.40;56.00;;;;;;5054713;28;20051;-65
2021/05/11 16:03:18;;;;;;;14.63;4.68;;;20.30;56.00;;;;;;5069042;28;20441;-65
2021/05/11 16:05:47;;;;;;;9.40;4.88;;;20.30;56.60;;;;;;5060208;28;20413;-64
2021/05/11 16:08:16;;;;;;;9.32;4.93;;;20.20;56.00;;;;;;5070961;28;20032;-65
2021/05/11 16:10:45;;;;;;;9.68;4.85;;;20.20;56.10;;;;;;5057877;28;20366;-65
2021/05/11 16:13:11;;;;;;;8.02;5.00;;;20.10;56.00;;;;;;5067521;28;20048;-65
2021/05/11 16:15:39;;;;;;;8.00;4.60;;;20.00;56.10;;;;;;5072566;28;20448;-65
2021/05/11 16:18:07;;;;;;;11.57;4.90;;;20.00;56.20;;;;;;5066595;28;20032;-65
2021/05/11 16:20:34;;;;;;;13.98;5.75;;;19.90;56.30;;;;;;5060133;28;20514;-65
2021/05/11 16:22:59;;;;;;;15.98;5.72;;;19.90;56.40;;;;;;5057718;28;21209;-65
2021/05/11 16:25:25;;;;;;;9.40;5.05;;;19.80;56.40;;;;;;5065864;28;20278;-64
2021/05/11 16:27:51;;;;;;;14.05;6.38;;;19.80;56.60;;;;;;5052376;28;20043;-65
2021/05/11 16:30:19;;;;;;;17.92;7.65;;;19.80;56.80;;;;;;5062078;28;20133;-64
2021/05/11 16:32:50;;;;;;;16.48;7.13;;;19.70;56.80;;;;;;5064132;28;20067;-64
2021/05/11 16:35:18;;;;;;;10.48;6.53;;;19.60;56.90;;;;;;5069753;28;20599;-64
2021/05/11 16:37:43;;;;;;;12.25;6.28;;;19.50;56.90;;;;;;5063583;28;20036;-64
2021/05/11 16:40:13;;;;;;;12.02;6.18;;;19.50;57.20;;;;;;5048070;28;20516;-64
2021/05/11 16:42:40;;;;;;;11.38;6.18;;;19.40;57.30;;;;;;5055500;28;20801;-65
2021/05/11 16:45:11;;;;;;;12.23;6.22;;;19.40;57.30;;;;;;5063695;28;20487;-64
2021/05/11 16:47:39;;;;;;;15.25;6.50;;;19.30;57.60;;;;;;5062021;28;20252;-64
2021/05/11 16:50:19;;;;;;;11.65;5.45;;;19.30;57.80;;;;;;5065062;28;20039;-64
2021/05/11 16:52:45;;;;;;;11.80;6.38;;;19.30;57.80;;;;;;5070898;28;20040;-64